<?xml version="1.0" encoding="UTF-8" standalone="no" ?>
<gpx xmlns="http://www.topografix.com/GPX/1/1" xmlns:xsi="http://www.w3.org/2001/XMLSchema-instance" xsi:schemaLocation="http://www.topografix.com/GPX/1/1 http://www.topografix.com/GPX/1/1/gpx.xsd" version="1.1" creator="VisuGPX - https://www.visugpx.com">
  <metadata>
    <name>Belgentier circuit dans les dolomies</name>
    <desc><![CDATA[départ du centre de Belgentier (chateau, sequoia)]]></desc>
  </metadata>
  <wpt lat="43.24375" lon="6.00063">
    <ele>151.9</ele>
    <name><![CDATA[Parc Peiresc sur la D554]]></name>
  </wpt>
  <wpt lat="43.24468" lon="5.99857">
    <ele>158.1</ele>
    <name><![CDATA[Carrefour GR]]></name>
  </wpt>
  <wpt lat="43.24474" lon="5.98436">
    <ele>223.4</ele>
    <name><![CDATA[Carrefour lacet]]></name>
  </wpt>
  <wpt lat="43.24251" lon="5.96995">
    <ele>536.4</ele>
    <name><![CDATA[Pas de Belgentier]]></name>
  </wpt>
  <wpt lat="43.23978" lon="5.97023">
    <ele>601.8</ele>
    <name><![CDATA[Citerne enterrée  STS12]]></name>
  </wpt>
  <wpt lat="43.22351" lon="5.96748">
    <ele>560.7</ele>
    <name><![CDATA[Carrefour 4 directions]]></name>
  </wpt>
  <wpt lat="43.22058" lon="5.97031">
    <ele>610.8</ele>
    <name><![CDATA[Ragage du Tank]]></name>
  </wpt>
  <wpt lat="43.21915" lon="5.96975">
    <ele>612.7</ele>
    <name><![CDATA[Ragage du Menhir]]></name>
  </wpt>
  <wpt lat="43.21881" lon="5.97016">
    <ele>606.1</ele>
    <name><![CDATA[Ragages du Menhir et de la Galère]]></name>
  </wpt>
  <wpt lat="43.22356" lon="5.96763">
    <ele>561.6</ele>
    <name><![CDATA[Intersection GR et chemin retour plein Est]]></name>
  </wpt>
  <wpt lat="43.22442" lon="5.97429">
    <ele>504.8</ele>
    <name><![CDATA[Carrefour 2ème barriére ]]></name>
  </wpt>
  <wpt lat="43.23568" lon="5.9832">
    <ele>257.1</ele>
    <name><![CDATA[Carrefou route]]></name>
  </wpt>
  <wpt lat="43.23793" lon="5.99362">
    <ele>226.2</ele>
    <name><![CDATA[Carrefour en Y]]></name>
  </wpt>
  <wpt lat="43.24288" lon="5.99859">
    <ele>161.1</ele>
    <name><![CDATA[Jonction avec la route, prendre à gauche.]]></name>
  </wpt>
  <wpt lat="43.24384" lon="6.0005">
    <ele>151.5</ele>
    <name><![CDATA[Parc Peiresc Parc Peiresc sur la D554]]></name>
  </wpt>
  <trk>
    <name><![CDATA[Randonnée du 26/10/2021 à 17:43]]></name>
    <extensions>
      <line xmlns="http://www.topografix.com/GPX/gpx_style/0/2">
        <color>0000FF</color>
        <width>4</width>
      </line>
    </extensions>
    <trkseg>
      <trkpt lat="43.24375" lon="6.00063">
        <ele>153</ele>
        <time>2021-04-25T09:18:57+02:00</time>
      </trkpt>
      <trkpt lat="43.24356" lon="6.00083">
        <ele>152</ele>
        <time>2021-04-25T09:23:35+02:00</time>
      </trkpt>
      <trkpt lat="43.24338" lon="6.00104">
        <ele>151</ele>
        <time>2021-04-25T09:23:57+02:00</time>
      </trkpt>
      <trkpt lat="43.24315" lon="6.00108">
        <ele>150</ele>
        <time>2021-04-25T09:24:38+02:00</time>
      </trkpt>
      <trkpt lat="43.24324" lon="6.00079">
        <ele>150</ele>
        <time>2021-04-25T09:25:08+02:00</time>
      </trkpt>
      <trkpt lat="43.2434" lon="6.00057">
        <ele>150</ele>
        <time>2021-04-25T09:25:32+02:00</time>
      </trkpt>
      <trkpt lat="43.24356" lon="6.00032">
        <ele>150</ele>
        <time>2021-04-25T09:25:57+02:00</time>
      </trkpt>
      <trkpt lat="43.2437" lon="6.00007">
        <ele>150</ele>
        <time>2021-04-25T09:26:15+02:00</time>
      </trkpt>
      <trkpt lat="43.24384" lon="5.99982">
        <ele>150</ele>
        <time>2021-04-25T09:26:38+02:00</time>
      </trkpt>
      <trkpt lat="43.24404" lon="5.99997">
        <ele>150</ele>
        <time>2021-04-25T09:29:09+02:00</time>
      </trkpt>
      <trkpt lat="43.24425" lon="6.00012">
        <ele>150</ele>
        <time>2021-04-25T09:29:31+02:00</time>
      </trkpt>
      <trkpt lat="43.24447" lon="6.0002">
        <ele>150</ele>
        <time>2021-04-25T09:29:59+02:00</time>
      </trkpt>
      <trkpt lat="43.24462" lon="5.99996">
        <ele>150</ele>
        <time>2021-04-25T09:30:36+02:00</time>
      </trkpt>
      <trkpt lat="43.2448" lon="5.99976">
        <ele>150</ele>
        <time>2021-04-25T09:31:13+02:00</time>
      </trkpt>
      <trkpt lat="43.2448" lon="5.99944">
        <ele>154</ele>
        <time>2021-04-25T09:32:09+02:00</time>
      </trkpt>
      <trkpt lat="43.24483" lon="5.99913">
        <ele>158</ele>
        <time>2021-04-25T09:32:51+02:00</time>
      </trkpt>
      <trkpt lat="43.2447" lon="5.99888">
        <ele>159</ele>
        <time>2021-04-25T09:33:14+02:00</time>
      </trkpt>
      <trkpt lat="43.24468" lon="5.99857">
        <ele>161</ele>
        <time>2021-04-25T09:35:13+02:00</time>
      </trkpt>
      <trkpt lat="43.2449" lon="5.99848">
        <ele>164</ele>
        <time>2021-04-25T09:35:34+02:00</time>
      </trkpt>
      <trkpt lat="43.24505" lon="5.99824">
        <ele>167</ele>
        <time>2021-04-25T09:36:27+02:00</time>
      </trkpt>
      <trkpt lat="43.24493" lon="5.99797">
        <ele>168</ele>
        <time>2021-04-25T09:36:51+02:00</time>
      </trkpt>
      <trkpt lat="43.24503" lon="5.99768">
        <ele>174</ele>
        <time>2021-04-25T09:37:41+02:00</time>
      </trkpt>
      <trkpt lat="43.24502" lon="5.99737">
        <ele>180</ele>
        <time>2021-04-25T09:38:05+02:00</time>
      </trkpt>
      <trkpt lat="43.24495" lon="5.99708">
        <ele>182</ele>
        <time>2021-04-25T09:38:33+02:00</time>
      </trkpt>
      <trkpt lat="43.24493" lon="5.99676">
        <ele>184</ele>
        <time>2021-04-25T09:38:59+02:00</time>
      </trkpt>
      <trkpt lat="43.24494" lon="5.99644">
        <ele>188</ele>
        <time>2021-04-25T09:39:22+02:00</time>
      </trkpt>
      <trkpt lat="43.24496" lon="5.99613">
        <ele>192</ele>
        <time>2021-04-25T09:41:01+02:00</time>
      </trkpt>
      <trkpt lat="43.24494" lon="5.99582">
        <ele>194</ele>
        <time>2021-04-25T09:41:27+02:00</time>
      </trkpt>
      <trkpt lat="43.24491" lon="5.99552">
        <ele>195</ele>
        <time>2021-04-25T09:41:50+02:00</time>
      </trkpt>
      <trkpt lat="43.24489" lon="5.9952">
        <ele>197</ele>
        <time>2021-04-25T09:42:10+02:00</time>
      </trkpt>
      <trkpt lat="43.24483" lon="5.9949">
        <ele>195</ele>
        <time>2021-04-25T09:42:29+02:00</time>
      </trkpt>
      <trkpt lat="43.24472" lon="5.99463">
        <ele>192</ele>
        <time>2021-04-25T09:42:48+02:00</time>
      </trkpt>
      <trkpt lat="43.24472" lon="5.99431">
        <ele>192</ele>
        <time>2021-04-25T09:43:13+02:00</time>
      </trkpt>
      <trkpt lat="43.24476" lon="5.994">
        <ele>192</ele>
        <time>2021-04-25T09:43:32+02:00</time>
      </trkpt>
      <trkpt lat="43.24481" lon="5.99369">
        <ele>192</ele>
        <time>2021-04-25T09:43:54+02:00</time>
      </trkpt>
      <trkpt lat="43.24487" lon="5.99339">
        <ele>193</ele>
        <time>2021-04-25T09:44:16+02:00</time>
      </trkpt>
      <trkpt lat="43.24492" lon="5.99309">
        <ele>193</ele>
        <time>2021-04-25T09:44:32+02:00</time>
      </trkpt>
      <trkpt lat="43.24493" lon="5.99277">
        <ele>192</ele>
        <time>2021-04-25T09:44:57+02:00</time>
      </trkpt>
      <trkpt lat="43.24495" lon="5.99246">
        <ele>190</ele>
        <time>2021-04-25T09:45:18+02:00</time>
      </trkpt>
      <trkpt lat="43.24498" lon="5.99216">
        <ele>189</ele>
        <time>2021-04-25T09:45:40+02:00</time>
      </trkpt>
      <trkpt lat="43.24506" lon="5.99186">
        <ele>190</ele>
        <time>2021-04-25T09:45:58+02:00</time>
      </trkpt>
      <trkpt lat="43.24513" lon="5.99155">
        <ele>190</ele>
        <time>2021-04-25T09:46:28+02:00</time>
      </trkpt>
      <trkpt lat="43.24524" lon="5.99128">
        <ele>192</ele>
        <time>2021-04-25T09:46:47+02:00</time>
      </trkpt>
      <trkpt lat="43.24533" lon="5.99098">
        <ele>191</ele>
        <time>2021-04-25T09:47:11+02:00</time>
      </trkpt>
      <trkpt lat="43.2454" lon="5.99068">
        <ele>190</ele>
        <time>2021-04-25T09:47:29+02:00</time>
      </trkpt>
      <trkpt lat="43.24546" lon="5.99037">
        <ele>189</ele>
        <time>2021-04-25T09:48:06+02:00</time>
      </trkpt>
      <trkpt lat="43.24551" lon="5.99006">
        <ele>187</ele>
        <time>2021-04-25T09:48:25+02:00</time>
      </trkpt>
      <trkpt lat="43.24556" lon="5.98975">
        <ele>185</ele>
        <time>2021-04-25T09:49:18+02:00</time>
      </trkpt>
      <trkpt lat="43.24569" lon="5.98949">
        <ele>188</ele>
        <time>2021-04-25T09:49:39+02:00</time>
      </trkpt>
      <trkpt lat="43.24576" lon="5.9892">
        <ele>187</ele>
        <time>2021-04-25T09:50:00+02:00</time>
      </trkpt>
      <trkpt lat="43.24574" lon="5.98889">
        <ele>184</ele>
        <time>2021-04-25T09:50:17+02:00</time>
      </trkpt>
      <trkpt lat="43.24566" lon="5.98858">
        <ele>180</ele>
        <time>2021-04-25T09:50:39+02:00</time>
      </trkpt>
      <trkpt lat="43.24576" lon="5.98828">
        <ele>182</ele>
        <time>2021-04-25T09:51:03+02:00</time>
      </trkpt>
      <trkpt lat="43.24577" lon="5.98797">
        <ele>184</ele>
        <time>2021-04-25T09:51:27+02:00</time>
      </trkpt>
      <trkpt lat="43.2456" lon="5.98778">
        <ele>184</ele>
        <time>2021-04-25T09:52:22+02:00</time>
      </trkpt>
      <trkpt lat="43.24545" lon="5.98754">
        <ele>186</ele>
        <time>2021-04-25T09:52:49+02:00</time>
      </trkpt>
      <trkpt lat="43.24534" lon="5.98726">
        <ele>190</ele>
        <time>2021-04-25T09:53:09+02:00</time>
      </trkpt>
      <trkpt lat="43.24516" lon="5.98707">
        <ele>190</ele>
        <time>2021-04-25T09:53:30+02:00</time>
      </trkpt>
      <trkpt lat="43.24504" lon="5.9868">
        <ele>195</ele>
        <time>2021-04-25T09:53:59+02:00</time>
      </trkpt>
      <trkpt lat="43.24498" lon="5.98649">
        <ele>202</ele>
        <time>2021-04-25T09:54:39+02:00</time>
      </trkpt>
      <trkpt lat="43.2449" lon="5.98619">
        <ele>207</ele>
        <time>2021-04-25T09:55:12+02:00</time>
      </trkpt>
      <trkpt lat="43.24483" lon="5.9859">
        <ele>213</ele>
        <time>2021-04-25T09:56:00+02:00</time>
      </trkpt>
      <trkpt lat="43.24474" lon="5.98561">
        <ele>215</ele>
        <time>2021-04-25T09:56:24+02:00</time>
      </trkpt>
      <trkpt lat="43.24471" lon="5.9853">
        <ele>217</ele>
        <time>2021-04-25T09:57:11+02:00</time>
      </trkpt>
      <trkpt lat="43.24467" lon="5.98498">
        <ele>218</ele>
        <time>2021-04-25T09:57:30+02:00</time>
      </trkpt>
      <trkpt lat="43.24469" lon="5.98466">
        <ele>222</ele>
        <time>2021-04-25T09:57:46+02:00</time>
      </trkpt>
      <trkpt lat="43.24474" lon="5.98436">
        <ele>226</ele>
        <time>2021-04-25T09:58:13+02:00</time>
      </trkpt>
      <trkpt lat="43.24452" lon="5.98437">
        <ele>226</ele>
        <time>2021-04-25T09:59:19+02:00</time>
      </trkpt>
      <trkpt lat="43.24433" lon="5.98455">
        <ele>227</ele>
        <time>2021-04-25T10:02:54+02:00</time>
      </trkpt>
      <trkpt lat="43.24421" lon="5.98482">
        <ele>226</ele>
        <time>2021-04-25T10:03:24+02:00</time>
      </trkpt>
      <trkpt lat="43.24404" lon="5.98503">
        <ele>226</ele>
        <time>2021-04-25T10:03:48+02:00</time>
      </trkpt>
      <trkpt lat="43.24402" lon="5.98472">
        <ele>236</ele>
        <time>2021-04-25T10:05:18+02:00</time>
      </trkpt>
      <trkpt lat="43.24415" lon="5.98447">
        <ele>236</ele>
        <time>2021-04-25T10:05:40+02:00</time>
      </trkpt>
      <trkpt lat="43.24423" lon="5.98418">
        <ele>238</ele>
        <time>2021-04-25T10:05:58+02:00</time>
      </trkpt>
      <trkpt lat="43.24433" lon="5.9839">
        <ele>238</ele>
        <time>2021-04-25T10:06:16+02:00</time>
      </trkpt>
      <trkpt lat="43.24432" lon="5.98359">
        <ele>243</ele>
        <time>2021-04-25T10:06:42+02:00</time>
      </trkpt>
      <trkpt lat="43.24434" lon="5.98327">
        <ele>246</ele>
        <time>2021-04-25T10:07:14+02:00</time>
      </trkpt>
      <trkpt lat="43.24442" lon="5.98298">
        <ele>247</ele>
        <time>2021-04-25T10:07:41+02:00</time>
      </trkpt>
      <trkpt lat="43.24433" lon="5.9827">
        <ele>253</ele>
        <time>2021-04-25T10:08:30+02:00</time>
      </trkpt>
      <trkpt lat="43.24427" lon="5.98239">
        <ele>258</ele>
        <time>2021-04-25T10:09:08+02:00</time>
      </trkpt>
      <trkpt lat="43.24423" lon="5.98207">
        <ele>261</ele>
        <time>2021-04-25T10:09:35+02:00</time>
      </trkpt>
      <trkpt lat="43.24423" lon="5.98176">
        <ele>261</ele>
        <time>2021-04-25T10:10:05+02:00</time>
      </trkpt>
      <trkpt lat="43.2442" lon="5.98144">
        <ele>265</ele>
        <time>2021-04-25T10:10:43+02:00</time>
      </trkpt>
      <trkpt lat="43.24423" lon="5.98114">
        <ele>266</ele>
        <time>2021-04-25T10:12:37+02:00</time>
      </trkpt>
      <trkpt lat="43.24418" lon="5.98083">
        <ele>275</ele>
        <time>2021-04-25T10:14:48+02:00</time>
      </trkpt>
      <trkpt lat="43.2441" lon="5.98055">
        <ele>281</ele>
        <time>2021-04-25T10:15:19+02:00</time>
      </trkpt>
      <trkpt lat="43.24404" lon="5.98025">
        <ele>285</ele>
        <time>2021-04-25T10:16:03+02:00</time>
      </trkpt>
      <trkpt lat="43.24395" lon="5.97996">
        <ele>289</ele>
        <time>2021-04-25T10:16:36+02:00</time>
      </trkpt>
      <trkpt lat="43.24386" lon="5.97968">
        <ele>294</ele>
        <time>2021-04-25T10:17:21+02:00</time>
      </trkpt>
      <trkpt lat="43.2438" lon="5.97937">
        <ele>297</ele>
        <time>2021-04-25T10:17:48+02:00</time>
      </trkpt>
      <trkpt lat="43.24374" lon="5.97907">
        <ele>302</ele>
        <time>2021-04-25T10:18:14+02:00</time>
      </trkpt>
      <trkpt lat="43.24363" lon="5.97879">
        <ele>307</ele>
        <time>2021-04-25T10:18:37+02:00</time>
      </trkpt>
      <trkpt lat="43.2435" lon="5.97854">
        <ele>308</ele>
        <time>2021-04-25T10:19:14+02:00</time>
      </trkpt>
      <trkpt lat="43.24336" lon="5.9783">
        <ele>309</ele>
        <time>2021-04-25T10:19:42+02:00</time>
      </trkpt>
      <trkpt lat="43.2432" lon="5.97806">
        <ele>312</ele>
        <time>2021-04-25T10:20:09+02:00</time>
      </trkpt>
      <trkpt lat="43.24302" lon="5.97787">
        <ele>317</ele>
        <time>2021-04-25T10:20:32+02:00</time>
      </trkpt>
      <trkpt lat="43.24293" lon="5.97758">
        <ele>320</ele>
        <time>2021-04-25T10:21:47+02:00</time>
      </trkpt>
      <trkpt lat="43.24287" lon="5.97727">
        <ele>320</ele>
        <time>2021-04-25T10:22:12+02:00</time>
      </trkpt>
      <trkpt lat="43.24275" lon="5.97701">
        <ele>323</ele>
        <time>2021-04-25T10:22:38+02:00</time>
      </trkpt>
      <trkpt lat="43.2426" lon="5.97678">
        <ele>329</ele>
        <time>2021-04-25T10:23:17+02:00</time>
      </trkpt>
      <trkpt lat="43.2424" lon="5.97661">
        <ele>336</ele>
        <time>2021-04-25T10:23:45+02:00</time>
      </trkpt>
      <trkpt lat="43.24224" lon="5.97639">
        <ele>338</ele>
        <time>2021-04-25T10:24:28+02:00</time>
      </trkpt>
      <trkpt lat="43.24203" lon="5.97626">
        <ele>343</ele>
        <time>2021-04-25T10:24:52+02:00</time>
      </trkpt>
      <trkpt lat="43.24181" lon="5.97616">
        <ele>348</ele>
        <time>2021-04-25T10:25:26+02:00</time>
      </trkpt>
      <trkpt lat="43.24162" lon="5.97596">
        <ele>354</ele>
        <time>2021-04-25T10:26:06+02:00</time>
      </trkpt>
      <trkpt lat="43.24161" lon="5.97566">
        <ele>361</ele>
        <time>2021-04-25T10:27:09+02:00</time>
      </trkpt>
      <trkpt lat="43.24153" lon="5.97536">
        <ele>372</ele>
        <time>2021-04-25T10:28:23+02:00</time>
      </trkpt>
      <trkpt lat="43.24149" lon="5.97506">
        <ele>379</ele>
        <time>2021-04-25T10:30:01+02:00</time>
      </trkpt>
      <trkpt lat="43.24129" lon="5.97488">
        <ele>392</ele>
        <time>2021-04-25T10:31:30+02:00</time>
      </trkpt>
      <trkpt lat="43.24124" lon="5.97458">
        <ele>398</ele>
        <time>2021-04-25T10:32:29+02:00</time>
      </trkpt>
      <trkpt lat="43.24115" lon="5.97429">
        <ele>404</ele>
        <time>2021-04-25T10:33:04+02:00</time>
      </trkpt>
      <trkpt lat="43.24106" lon="5.97399">
        <ele>409</ele>
        <time>2021-04-25T10:33:42+02:00</time>
      </trkpt>
      <trkpt lat="43.24101" lon="5.97368">
        <ele>412</ele>
        <time>2021-04-25T10:34:18+02:00</time>
      </trkpt>
      <trkpt lat="43.24092" lon="5.97339">
        <ele>418</ele>
        <time>2021-04-25T10:34:46+02:00</time>
      </trkpt>
      <trkpt lat="43.24088" lon="5.97308">
        <ele>421</ele>
        <time>2021-04-25T10:35:19+02:00</time>
      </trkpt>
      <trkpt lat="43.24073" lon="5.97285">
        <ele>433</ele>
        <time>2021-04-25T10:36:44+02:00</time>
      </trkpt>
      <trkpt lat="43.24075" lon="5.97254">
        <ele>439</ele>
        <time>2021-04-25T10:37:28+02:00</time>
      </trkpt>
      <trkpt lat="43.24055" lon="5.97237">
        <ele>451</ele>
        <time>2021-04-25T10:38:40+02:00</time>
      </trkpt>
      <trkpt lat="43.24067" lon="5.9721">
        <ele>457</ele>
        <time>2021-04-25T10:41:00+02:00</time>
      </trkpt>
      <trkpt lat="43.24085" lon="5.97192">
        <ele>462</ele>
        <time>2021-04-25T10:41:46+02:00</time>
      </trkpt>
      <trkpt lat="43.241" lon="5.97168">
        <ele>483</ele>
        <time>2021-04-25T10:47:22+02:00</time>
      </trkpt>
      <trkpt lat="43.24122" lon="5.97166">
        <ele>476</ele>
        <time>2021-04-25T10:48:01+02:00</time>
      </trkpt>
      <trkpt lat="43.24139" lon="5.97145">
        <ele>485</ele>
        <time>2021-04-25T10:48:44+02:00</time>
      </trkpt>
      <trkpt lat="43.24162" lon="5.97141">
        <ele>489</ele>
        <time>2021-04-25T10:49:07+02:00</time>
      </trkpt>
      <trkpt lat="43.24184" lon="5.9715">
        <ele>474</ele>
        <time>2021-04-25T10:50:19+02:00</time>
      </trkpt>
      <trkpt lat="43.24205" lon="5.97137">
        <ele>473</ele>
        <time>2021-04-25T10:50:42+02:00</time>
      </trkpt>
      <trkpt lat="43.24208" lon="5.97105">
        <ele>489</ele>
        <time>2021-04-25T10:51:00+02:00</time>
      </trkpt>
      <trkpt lat="43.24218" lon="5.97077">
        <ele>495</ele>
        <time>2021-04-25T10:51:32+02:00</time>
      </trkpt>
      <trkpt lat="43.24229" lon="5.9705">
        <ele>509</ele>
        <time>2021-04-25T10:52:18+02:00</time>
      </trkpt>
      <trkpt lat="43.24239" lon="5.97022">
        <ele>526</ele>
        <time>2021-04-25T10:55:37+02:00</time>
      </trkpt>
      <trkpt lat="43.24251" lon="5.96995">
        <ele>538</ele>
        <time>2021-04-25T10:58:43+02:00</time>
      </trkpt>
      <trkpt lat="43.24241" lon="5.96973">
        <ele>541</ele>
        <time>2021-04-25T11:21:46+02:00</time>
      </trkpt>
      <trkpt lat="43.24218" lon="5.96972">
        <ele>543</ele>
        <time>2021-04-25T11:22:12+02:00</time>
      </trkpt>
      <trkpt lat="43.24204" lon="5.96946">
        <ele>546</ele>
        <time>2021-04-25T11:22:37+02:00</time>
      </trkpt>
      <trkpt lat="43.24192" lon="5.96919">
        <ele>549</ele>
        <time>2021-04-25T11:23:09+02:00</time>
      </trkpt>
      <trkpt lat="43.24181" lon="5.96892">
        <ele>552</ele>
        <time>2021-04-25T11:23:34+02:00</time>
      </trkpt>
      <trkpt lat="43.24169" lon="5.96865">
        <ele>554</ele>
        <time>2021-04-25T11:23:59+02:00</time>
      </trkpt>
      <trkpt lat="43.24155" lon="5.9684">
        <ele>557</ele>
        <time>2021-04-25T11:24:24+02:00</time>
      </trkpt>
      <trkpt lat="43.24144" lon="5.96812">
        <ele>559</ele>
        <time>2021-04-25T11:25:00+02:00</time>
      </trkpt>
      <trkpt lat="43.24128" lon="5.96789">
        <ele>563</ele>
        <time>2021-04-25T11:25:49+02:00</time>
      </trkpt>
      <trkpt lat="43.24109" lon="5.96772">
        <ele>568</ele>
        <time>2021-04-25T11:26:13+02:00</time>
      </trkpt>
      <trkpt lat="43.24087" lon="5.9676">
        <ele>573</ele>
        <time>2021-04-25T11:26:31+02:00</time>
      </trkpt>
      <trkpt lat="43.24078" lon="5.96732">
        <ele>573</ele>
        <time>2021-04-25T11:27:08+02:00</time>
      </trkpt>
      <trkpt lat="43.24061" lon="5.96752">
        <ele>581</ele>
        <time>2021-04-25T11:28:01+02:00</time>
      </trkpt>
      <trkpt lat="43.24054" lon="5.96723">
        <ele>581</ele>
        <time>2021-04-25T11:31:17+02:00</time>
      </trkpt>
      <trkpt lat="43.24051" lon="5.96691">
        <ele>581</ele>
        <time>2021-04-25T11:31:41+02:00</time>
      </trkpt>
      <trkpt lat="43.24036" lon="5.96668">
        <ele>590</ele>
        <time>2021-04-25T11:35:45+02:00</time>
      </trkpt>
      <trkpt lat="43.24042" lon="5.96698">
        <ele>586</ele>
        <time>2021-04-25T11:44:45+02:00</time>
      </trkpt>
      <trkpt lat="43.24045" lon="5.9673">
        <ele>584</ele>
        <time>2021-04-25T11:45:07+02:00</time>
      </trkpt>
      <trkpt lat="43.24055" lon="5.96759">
        <ele>583</ele>
        <time>2021-04-25T11:45:51+02:00</time>
      </trkpt>
      <trkpt lat="43.24061" lon="5.96789">
        <ele>584</ele>
        <time>2021-04-25T11:46:56+02:00</time>
      </trkpt>
      <trkpt lat="43.24063" lon="5.96821">
        <ele>586</ele>
        <time>2021-04-25T11:47:21+02:00</time>
      </trkpt>
      <trkpt lat="43.24067" lon="5.96851">
        <ele>588</ele>
        <time>2021-04-25T11:47:41+02:00</time>
      </trkpt>
      <trkpt lat="43.2406" lon="5.96881">
        <ele>590</ele>
        <time>2021-04-25T11:48:04+02:00</time>
      </trkpt>
      <trkpt lat="43.24072" lon="5.96908">
        <ele>586</ele>
        <time>2021-04-25T11:48:45+02:00</time>
      </trkpt>
      <trkpt lat="43.24072" lon="5.96901">
        <ele>586</ele>
        <time>2021-04-25T12:34:07+02:00</time>
      </trkpt>
      <trkpt lat="43.2405" lon="5.96903">
        <ele>592</ele>
        <time>2021-04-25T12:36:49+02:00</time>
      </trkpt>
      <trkpt lat="43.24034" lon="5.96925">
        <ele>594</ele>
        <time>2021-04-25T12:37:15+02:00</time>
      </trkpt>
      <trkpt lat="43.24017" lon="5.96948">
        <ele>596</ele>
        <time>2021-04-25T12:37:38+02:00</time>
      </trkpt>
      <trkpt lat="43.24006" lon="5.96977">
        <ele>597</ele>
        <time>2021-04-25T12:38:01+02:00</time>
      </trkpt>
      <trkpt lat="43.23988" lon="5.96996">
        <ele>600</ele>
        <time>2021-04-25T12:38:28+02:00</time>
      </trkpt>
      <trkpt lat="43.23978" lon="5.97023">
        <ele>600</ele>
        <time>2021-04-25T12:38:53+02:00</time>
      </trkpt>
      <trkpt lat="43.23955" lon="5.97025">
        <ele>599</ele>
        <time>2021-04-25T12:46:11+02:00</time>
      </trkpt>
      <trkpt lat="43.23936" lon="5.97007">
        <ele>596</ele>
        <time>2021-04-25T12:46:39+02:00</time>
      </trkpt>
      <trkpt lat="43.23917" lon="5.9699">
        <ele>593</ele>
        <time>2021-04-25T12:47:06+02:00</time>
      </trkpt>
      <trkpt lat="43.23895" lon="5.96985">
        <ele>592</ele>
        <time>2021-04-25T12:47:27+02:00</time>
      </trkpt>
      <trkpt lat="43.23872" lon="5.96989">
        <ele>591</ele>
        <time>2021-04-25T12:47:45+02:00</time>
      </trkpt>
      <trkpt lat="43.23851" lon="5.97002">
        <ele>590</ele>
        <time>2021-04-25T12:48:02+02:00</time>
      </trkpt>
      <trkpt lat="43.23829" lon="5.9701">
        <ele>590</ele>
        <time>2021-04-25T12:48:30+02:00</time>
      </trkpt>
      <trkpt lat="43.2381" lon="5.97028">
        <ele>590</ele>
        <time>2021-04-25T12:50:48+02:00</time>
      </trkpt>
      <trkpt lat="43.23787" lon="5.97028">
        <ele>588</ele>
        <time>2021-04-25T12:51:06+02:00</time>
      </trkpt>
      <trkpt lat="43.23766" lon="5.97015">
        <ele>586</ele>
        <time>2021-04-25T12:51:27+02:00</time>
      </trkpt>
      <trkpt lat="43.23746" lon="5.97002">
        <ele>585</ele>
        <time>2021-04-25T12:51:47+02:00</time>
      </trkpt>
      <trkpt lat="43.23728" lon="5.96982">
        <ele>586</ele>
        <time>2021-04-25T12:52:08+02:00</time>
      </trkpt>
      <trkpt lat="43.23708" lon="5.96966">
        <ele>589</ele>
        <time>2021-04-25T12:52:37+02:00</time>
      </trkpt>
      <trkpt lat="43.23686" lon="5.96958">
        <ele>591</ele>
        <time>2021-04-25T12:53:00+02:00</time>
      </trkpt>
      <trkpt lat="43.23662" lon="5.96953">
        <ele>593</ele>
        <time>2021-04-25T12:53:16+02:00</time>
      </trkpt>
      <trkpt lat="43.23639" lon="5.9695">
        <ele>595</ele>
        <time>2021-04-25T12:53:38+02:00</time>
      </trkpt>
      <trkpt lat="43.23617" lon="5.96938">
        <ele>598</ele>
        <time>2021-04-25T12:54:03+02:00</time>
      </trkpt>
      <trkpt lat="43.23594" lon="5.9693">
        <ele>600</ele>
        <time>2021-04-25T12:54:22+02:00</time>
      </trkpt>
      <trkpt lat="43.23571" lon="5.9693">
        <ele>601</ele>
        <time>2021-04-25T12:54:37+02:00</time>
      </trkpt>
      <trkpt lat="43.23549" lon="5.96934">
        <ele>602</ele>
        <time>2021-04-25T12:55:03+02:00</time>
      </trkpt>
      <trkpt lat="43.23525" lon="5.96933">
        <ele>604</ele>
        <time>2021-04-25T12:55:23+02:00</time>
      </trkpt>
      <trkpt lat="43.23512" lon="5.96959">
        <ele>605</ele>
        <time>2021-04-25T12:55:42+02:00</time>
      </trkpt>
      <trkpt lat="43.23502" lon="5.96989">
        <ele>605</ele>
        <time>2021-04-25T12:56:04+02:00</time>
      </trkpt>
      <trkpt lat="43.23479" lon="5.96992">
        <ele>608</ele>
        <time>2021-04-25T12:56:31+02:00</time>
      </trkpt>
      <trkpt lat="43.23456" lon="5.96989">
        <ele>610</ele>
        <time>2021-04-25T12:57:03+02:00</time>
      </trkpt>
      <trkpt lat="43.23432" lon="5.96993">
        <ele>611</ele>
        <time>2021-04-25T12:57:24+02:00</time>
      </trkpt>
      <trkpt lat="43.23409" lon="5.96994">
        <ele>612</ele>
        <time>2021-04-25T12:57:41+02:00</time>
      </trkpt>
      <trkpt lat="43.23385" lon="5.96989">
        <ele>613</ele>
        <time>2021-04-25T12:58:02+02:00</time>
      </trkpt>
      <trkpt lat="43.23363" lon="5.96993">
        <ele>613</ele>
        <time>2021-04-25T12:58:19+02:00</time>
      </trkpt>
      <trkpt lat="43.23342" lon="5.97005">
        <ele>613</ele>
        <time>2021-04-25T12:58:36+02:00</time>
      </trkpt>
      <trkpt lat="43.23319" lon="5.97013">
        <ele>613</ele>
        <time>2021-04-25T12:58:53+02:00</time>
      </trkpt>
      <trkpt lat="43.23296" lon="5.97011">
        <ele>616</ele>
        <time>2021-04-25T12:59:14+02:00</time>
      </trkpt>
      <trkpt lat="43.23275" lon="5.97021">
        <ele>615</ele>
        <time>2021-04-25T12:59:31+02:00</time>
      </trkpt>
      <trkpt lat="43.23252" lon="5.97026">
        <ele>615</ele>
        <time>2021-04-25T12:59:48+02:00</time>
      </trkpt>
      <trkpt lat="43.23229" lon="5.97032">
        <ele>615</ele>
        <time>2021-04-25T13:00:41+02:00</time>
      </trkpt>
      <trkpt lat="43.23206" lon="5.97028">
        <ele>615</ele>
        <time>2021-04-25T13:01:06+02:00</time>
      </trkpt>
      <trkpt lat="43.23186" lon="5.97014">
        <ele>615</ele>
        <time>2021-04-25T13:01:30+02:00</time>
      </trkpt>
      <trkpt lat="43.23163" lon="5.97013">
        <ele>611</ele>
        <time>2021-04-25T13:02:13+02:00</time>
      </trkpt>
      <trkpt lat="43.23142" lon="5.97001">
        <ele>610</ele>
        <time>2021-04-25T13:02:34+02:00</time>
      </trkpt>
      <trkpt lat="43.2312" lon="5.96999">
        <ele>608</ele>
        <time>2021-04-25T13:03:05+02:00</time>
      </trkpt>
      <trkpt lat="43.23097" lon="5.97003">
        <ele>607</ele>
        <time>2021-04-25T13:04:02+02:00</time>
      </trkpt>
      <trkpt lat="43.23074" lon="5.97003">
        <ele>607</ele>
        <time>2021-04-25T13:04:19+02:00</time>
      </trkpt>
      <trkpt lat="43.23055" lon="5.96987">
        <ele>609</ele>
        <time>2021-04-25T13:04:39+02:00</time>
      </trkpt>
      <trkpt lat="43.23033" lon="5.96974">
        <ele>606</ele>
        <time>2021-04-25T13:04:57+02:00</time>
      </trkpt>
      <trkpt lat="43.23011" lon="5.96961">
        <ele>605</ele>
        <time>2021-04-25T13:05:16+02:00</time>
      </trkpt>
      <trkpt lat="43.2299" lon="5.96947">
        <ele>603</ele>
        <time>2021-04-25T13:05:36+02:00</time>
      </trkpt>
      <trkpt lat="43.22969" lon="5.96934">
        <ele>601</ele>
        <time>2021-04-25T13:05:51+02:00</time>
      </trkpt>
      <trkpt lat="43.22951" lon="5.96915">
        <ele>601</ele>
        <time>2021-04-25T13:06:09+02:00</time>
      </trkpt>
      <trkpt lat="43.22932" lon="5.96896">
        <ele>600</ele>
        <time>2021-04-25T13:06:29+02:00</time>
      </trkpt>
      <trkpt lat="43.22914" lon="5.96877">
        <ele>597</ele>
        <time>2021-04-25T13:07:36+02:00</time>
      </trkpt>
      <trkpt lat="43.22897" lon="5.96856">
        <ele>593</ele>
        <time>2021-04-25T13:07:56+02:00</time>
      </trkpt>
      <trkpt lat="43.22881" lon="5.96833">
        <ele>590</ele>
        <time>2021-04-25T13:08:18+02:00</time>
      </trkpt>
      <trkpt lat="43.22861" lon="5.96819">
        <ele>589</ele>
        <time>2021-04-25T13:08:35+02:00</time>
      </trkpt>
      <trkpt lat="43.22839" lon="5.96806">
        <ele>589</ele>
        <time>2021-04-25T13:08:55+02:00</time>
      </trkpt>
      <trkpt lat="43.22819" lon="5.9679">
        <ele>589</ele>
        <time>2021-04-25T13:09:10+02:00</time>
      </trkpt>
      <trkpt lat="43.22799" lon="5.96772">
        <ele>588</ele>
        <time>2021-04-25T13:09:26+02:00</time>
      </trkpt>
      <trkpt lat="43.22785" lon="5.96748">
        <ele>588</ele>
        <time>2021-04-25T13:09:43+02:00</time>
      </trkpt>
      <trkpt lat="43.22771" lon="5.96723">
        <ele>588</ele>
        <time>2021-04-25T13:10:02+02:00</time>
      </trkpt>
      <trkpt lat="43.2276" lon="5.96695">
        <ele>588</ele>
        <time>2021-04-25T13:10:20+02:00</time>
      </trkpt>
      <trkpt lat="43.22761" lon="5.96664">
        <ele>589</ele>
        <time>2021-04-25T13:10:41+02:00</time>
      </trkpt>
      <trkpt lat="43.22747" lon="5.96639">
        <ele>589</ele>
        <time>2021-04-25T13:10:58+02:00</time>
      </trkpt>
      <trkpt lat="43.22725" lon="5.96629">
        <ele>588</ele>
        <time>2021-04-25T13:11:28+02:00</time>
      </trkpt>
      <trkpt lat="43.22704" lon="5.96642">
        <ele>591</ele>
        <time>2021-04-25T13:11:46+02:00</time>
      </trkpt>
      <trkpt lat="43.22686" lon="5.96662">
        <ele>592</ele>
        <time>2021-04-25T13:12:02+02:00</time>
      </trkpt>
      <trkpt lat="43.22667" lon="5.9668">
        <ele>593</ele>
        <time>2021-04-25T13:12:21+02:00</time>
      </trkpt>
      <trkpt lat="43.22648" lon="5.96696">
        <ele>596</ele>
        <time>2021-04-25T13:12:40+02:00</time>
      </trkpt>
      <trkpt lat="43.22629" lon="5.96716">
        <ele>598</ele>
        <time>2021-04-25T13:13:00+02:00</time>
      </trkpt>
      <trkpt lat="43.22616" lon="5.96742">
        <ele>598</ele>
        <time>2021-04-25T13:13:18+02:00</time>
      </trkpt>
      <trkpt lat="43.226" lon="5.96766">
        <ele>596</ele>
        <time>2021-04-25T13:13:45+02:00</time>
      </trkpt>
      <trkpt lat="43.22581" lon="5.96784">
        <ele>594</ele>
        <time>2021-04-25T13:14:07+02:00</time>
      </trkpt>
      <trkpt lat="43.22561" lon="5.96798">
        <ele>593</ele>
        <time>2021-04-25T13:14:33+02:00</time>
      </trkpt>
      <trkpt lat="43.2254" lon="5.96784">
        <ele>591</ele>
        <time>2021-04-25T13:14:53+02:00</time>
      </trkpt>
      <trkpt lat="43.22524" lon="5.96763">
        <ele>590</ele>
        <time>2021-04-25T13:15:15+02:00</time>
      </trkpt>
      <trkpt lat="43.22501" lon="5.9676">
        <ele>587</ele>
        <time>2021-04-25T13:15:43+02:00</time>
      </trkpt>
      <trkpt lat="43.2248" lon="5.96775">
        <ele>584</ele>
        <time>2021-04-25T13:16:05+02:00</time>
      </trkpt>
      <trkpt lat="43.22462" lon="5.96793">
        <ele>583</ele>
        <time>2021-04-25T13:16:29+02:00</time>
      </trkpt>
      <trkpt lat="43.22441" lon="5.96808">
        <ele>579</ele>
        <time>2021-04-25T13:16:50+02:00</time>
      </trkpt>
      <trkpt lat="43.22428" lon="5.96834">
        <ele>577</ele>
        <time>2021-04-25T13:17:50+02:00</time>
      </trkpt>
      <trkpt lat="43.22415" lon="5.96807">
        <ele>572</ele>
        <time>2021-04-25T13:18:46+02:00</time>
      </trkpt>
      <trkpt lat="43.22414" lon="5.96776">
        <ele>570</ele>
        <time>2021-04-25T13:19:09+02:00</time>
      </trkpt>
      <trkpt lat="43.22393" lon="5.96763">
        <ele>566</ele>
        <time>2021-04-25T13:19:27+02:00</time>
      </trkpt>
      <trkpt lat="43.22371" lon="5.96764">
        <ele>565</ele>
        <time>2021-04-25T13:20:16+02:00</time>
      </trkpt>
      <trkpt lat="43.22351" lon="5.96748">
        <ele>565</ele>
        <time>2021-04-25T13:20:36+02:00</time>
      </trkpt>
      <trkpt lat="43.22338" lon="5.96721">
        <ele>566</ele>
        <time>2021-04-25T13:21:09+02:00</time>
      </trkpt>
      <trkpt lat="43.22327" lon="5.96694">
        <ele>567</ele>
        <time>2021-04-25T13:21:31+02:00</time>
      </trkpt>
      <trkpt lat="43.22311" lon="5.9667">
        <ele>568</ele>
        <time>2021-04-25T13:21:53+02:00</time>
      </trkpt>
      <trkpt lat="43.22293" lon="5.96651">
        <ele>568</ele>
        <time>2021-04-25T13:22:11+02:00</time>
      </trkpt>
      <trkpt lat="43.22293" lon="5.96618">
        <ele>572</ele>
        <time>2021-04-25T13:22:36+02:00</time>
      </trkpt>
      <trkpt lat="43.22282" lon="5.96592">
        <ele>571</ele>
        <time>2021-04-25T13:22:52+02:00</time>
      </trkpt>
      <trkpt lat="43.22285" lon="5.9656">
        <ele>574</ele>
        <time>2021-04-25T13:23:11+02:00</time>
      </trkpt>
      <trkpt lat="43.22289" lon="5.96528">
        <ele>577</ele>
        <time>2021-04-25T13:23:34+02:00</time>
      </trkpt>
      <trkpt lat="43.22269" lon="5.96513">
        <ele>579</ele>
        <time>2021-04-25T13:23:58+02:00</time>
      </trkpt>
      <trkpt lat="43.22247" lon="5.96525">
        <ele>581</ele>
        <time>2021-04-25T13:25:09+02:00</time>
      </trkpt>
      <trkpt lat="43.22231" lon="5.96548">
        <ele>582</ele>
        <time>2021-04-25T13:25:43+02:00</time>
      </trkpt>
      <trkpt lat="43.22212" lon="5.96565">
        <ele>586</ele>
        <time>2021-04-25T13:26:09+02:00</time>
      </trkpt>
      <trkpt lat="43.22204" lon="5.96596">
        <ele>585</ele>
        <time>2021-04-25T13:27:07+02:00</time>
      </trkpt>
      <trkpt lat="43.22187" lon="5.96617">
        <ele>590</ele>
        <time>2021-04-25T13:27:25+02:00</time>
      </trkpt>
      <trkpt lat="43.22177" lon="5.96646">
        <ele>592</ele>
        <time>2021-04-25T13:27:41+02:00</time>
      </trkpt>
      <trkpt lat="43.22169" lon="5.96676">
        <ele>593</ele>
        <time>2021-04-25T13:27:58+02:00</time>
      </trkpt>
      <trkpt lat="43.22163" lon="5.96707">
        <ele>593</ele>
        <time>2021-04-25T13:28:15+02:00</time>
      </trkpt>
      <trkpt lat="43.22159" lon="5.96739">
        <ele>593</ele>
        <time>2021-04-25T13:28:32+02:00</time>
      </trkpt>
      <trkpt lat="43.22159" lon="5.96771">
        <ele>592</ele>
        <time>2021-04-25T13:28:50+02:00</time>
      </trkpt>
      <trkpt lat="43.22166" lon="5.96801">
        <ele>587</ele>
        <time>2021-04-25T13:29:14+02:00</time>
      </trkpt>
      <trkpt lat="43.2215" lon="5.96825">
        <ele>594</ele>
        <time>2021-04-25T13:29:34+02:00</time>
      </trkpt>
      <trkpt lat="43.22148" lon="5.96856">
        <ele>593</ele>
        <time>2021-04-25T13:29:56+02:00</time>
      </trkpt>
      <trkpt lat="43.22134" lon="5.9688">
        <ele>598</ele>
        <time>2021-04-25T13:30:25+02:00</time>
      </trkpt>
      <trkpt lat="43.22125" lon="5.96909">
        <ele>600</ele>
        <time>2021-04-25T13:30:55+02:00</time>
      </trkpt>
      <trkpt lat="43.2212" lon="5.96939">
        <ele>600</ele>
        <time>2021-04-25T13:31:23+02:00</time>
      </trkpt>
      <trkpt lat="43.2211" lon="5.96967">
        <ele>603</ele>
        <time>2021-04-25T13:31:50+02:00</time>
      </trkpt>
      <trkpt lat="43.22092" lon="5.96988">
        <ele>608</ele>
        <time>2021-04-25T13:32:18+02:00</time>
      </trkpt>
      <trkpt lat="43.22076" lon="5.97011">
        <ele>611</ele>
        <time>2021-04-25T13:32:39+02:00</time>
      </trkpt>
      <trkpt lat="43.22058" lon="5.97031">
        <ele>614</ele>
        <time>2021-04-25T13:33:01+02:00</time>
      </trkpt>
      <trkpt lat="43.22036" lon="5.97026">
        <ele>612</ele>
        <time>2021-04-25T13:35:37+02:00</time>
      </trkpt>
      <trkpt lat="43.2202" lon="5.97003">
        <ele>610</ele>
        <time>2021-04-25T13:35:58+02:00</time>
      </trkpt>
      <trkpt lat="43.22" lon="5.96988">
        <ele>612</ele>
        <time>2021-04-25T13:36:57+02:00</time>
      </trkpt>
      <trkpt lat="43.2198" lon="5.96971">
        <ele>614</ele>
        <time>2021-04-25T13:37:19+02:00</time>
      </trkpt>
      <trkpt lat="43.21958" lon="5.96962">
        <ele>615</ele>
        <time>2021-04-25T13:37:39+02:00</time>
      </trkpt>
      <trkpt lat="43.21937" lon="5.96978">
        <ele>612</ele>
        <time>2021-04-25T13:37:59+02:00</time>
      </trkpt>
      <trkpt lat="43.21915" lon="5.96975">
        <ele>613</ele>
        <time>2021-04-25T13:38:43+02:00</time>
      </trkpt>
      <trkpt lat="43.21902" lon="5.97001">
        <ele>610</ele>
        <time>2021-04-25T13:43:02+02:00</time>
      </trkpt>
      <trkpt lat="43.21881" lon="5.97016">
        <ele>606</ele>
        <time>2021-04-25T13:43:30+02:00</time>
      </trkpt>
      <trkpt lat="43.21903" lon="5.97007">
        <ele>609</ele>
        <time>2021-04-25T13:48:49+02:00</time>
      </trkpt>
      <trkpt lat="43.21925" lon="5.96996">
        <ele>610</ele>
        <time>2021-04-25T13:49:10+02:00</time>
      </trkpt>
      <trkpt lat="43.21945" lon="5.96979">
        <ele>612</ele>
        <time>2021-04-25T13:49:29+02:00</time>
      </trkpt>
      <trkpt lat="43.21967" lon="5.96973">
        <ele>613</ele>
        <time>2021-04-25T13:49:51+02:00</time>
      </trkpt>
      <trkpt lat="43.21988" lon="5.96986">
        <ele>612</ele>
        <time>2021-04-25T13:50:10+02:00</time>
      </trkpt>
      <trkpt lat="43.22005" lon="5.97007">
        <ele>610</ele>
        <time>2021-04-25T13:50:29+02:00</time>
      </trkpt>
      <trkpt lat="43.22026" lon="5.97023">
        <ele>611</ele>
        <time>2021-04-25T13:50:47+02:00</time>
      </trkpt>
      <trkpt lat="43.2204" lon="5.97048">
        <ele>613</ele>
        <time>2021-04-25T13:51:03+02:00</time>
      </trkpt>
      <trkpt lat="43.22063" lon="5.9704">
        <ele>612</ele>
        <time>2021-04-25T13:51:19+02:00</time>
      </trkpt>
      <trkpt lat="43.22082" lon="5.97022">
        <ele>609</ele>
        <time>2021-04-25T13:51:39+02:00</time>
      </trkpt>
      <trkpt lat="43.22095" lon="5.96996">
        <ele>606</ele>
        <time>2021-04-25T13:51:59+02:00</time>
      </trkpt>
      <trkpt lat="43.22113" lon="5.96977">
        <ele>600</ele>
        <time>2021-04-25T13:52:22+02:00</time>
      </trkpt>
      <trkpt lat="43.22124" lon="5.9695">
        <ele>597</ele>
        <time>2021-04-25T13:52:45+02:00</time>
      </trkpt>
      <trkpt lat="43.22129" lon="5.96918">
        <ele>597</ele>
        <time>2021-04-25T13:53:10+02:00</time>
      </trkpt>
      <trkpt lat="43.22144" lon="5.96893">
        <ele>592</ele>
        <time>2021-04-25T13:53:37+02:00</time>
      </trkpt>
      <trkpt lat="43.22155" lon="5.96866">
        <ele>588</ele>
        <time>2021-04-25T13:54:00+02:00</time>
      </trkpt>
      <trkpt lat="43.22161" lon="5.96835">
        <ele>587</ele>
        <time>2021-04-25T13:54:23+02:00</time>
      </trkpt>
      <trkpt lat="43.22167" lon="5.96805">
        <ele>586</ele>
        <time>2021-04-25T13:54:40+02:00</time>
      </trkpt>
      <trkpt lat="43.22177" lon="5.96777">
        <ele>583</ele>
        <time>2021-04-25T13:55:16+02:00</time>
      </trkpt>
      <trkpt lat="43.22184" lon="5.96746">
        <ele>579</ele>
        <time>2021-04-25T13:55:52+02:00</time>
      </trkpt>
      <trkpt lat="43.22197" lon="5.96721">
        <ele>573</ele>
        <time>2021-04-25T13:56:22+02:00</time>
      </trkpt>
      <trkpt lat="43.22219" lon="5.96727">
        <ele>567</ele>
        <time>2021-04-25T13:57:48+02:00</time>
      </trkpt>
      <trkpt lat="43.22239" lon="5.96708">
        <ele>564</ele>
        <time>2021-04-25T13:58:43+02:00</time>
      </trkpt>
      <trkpt lat="43.22256" lon="5.96686">
        <ele>563</ele>
        <time>2021-04-25T13:59:16+02:00</time>
      </trkpt>
      <trkpt lat="43.22279" lon="5.96696">
        <ele>564</ele>
        <time>2021-04-25T13:59:49+02:00</time>
      </trkpt>
      <trkpt lat="43.22298" lon="5.96712">
        <ele>565</ele>
        <time>2021-04-25T14:00:09+02:00</time>
      </trkpt>
      <trkpt lat="43.22319" lon="5.96724">
        <ele>565</ele>
        <time>2021-04-25T14:00:30+02:00</time>
      </trkpt>
      <trkpt lat="43.22336" lon="5.96746">
        <ele>565</ele>
        <time>2021-04-25T14:00:57+02:00</time>
      </trkpt>
      <trkpt lat="43.22356" lon="5.96763">
        <ele>565</ele>
        <time>2021-04-25T14:01:17+02:00</time>
      </trkpt>
      <trkpt lat="43.22377" lon="5.96777">
        <ele>565</ele>
        <time>2021-04-25T14:04:03+02:00</time>
      </trkpt>
      <trkpt lat="43.22368" lon="5.96805">
        <ele>561</ele>
        <time>2021-04-25T14:05:15+02:00</time>
      </trkpt>
      <trkpt lat="43.22354" lon="5.9683">
        <ele>559</ele>
        <time>2021-04-25T14:05:36+02:00</time>
      </trkpt>
      <trkpt lat="43.22341" lon="5.96855">
        <ele>556</ele>
        <time>2021-04-25T14:06:08+02:00</time>
      </trkpt>
      <trkpt lat="43.22337" lon="5.96887">
        <ele>555</ele>
        <time>2021-04-25T14:06:28+02:00</time>
      </trkpt>
      <trkpt lat="43.22351" lon="5.96912">
        <ele>555</ele>
        <time>2021-04-25T14:06:47+02:00</time>
      </trkpt>
      <trkpt lat="43.22364" lon="5.96938">
        <ele>552</ele>
        <time>2021-04-25T14:07:18+02:00</time>
      </trkpt>
      <trkpt lat="43.2237" lon="5.96968">
        <ele>549</ele>
        <time>2021-04-25T14:07:45+02:00</time>
      </trkpt>
      <trkpt lat="43.22357" lon="5.96994">
        <ele>547</ele>
        <time>2021-04-25T14:08:11+02:00</time>
      </trkpt>
      <trkpt lat="43.22335" lon="5.97001">
        <ele>547</ele>
        <time>2021-04-25T14:09:02+02:00</time>
      </trkpt>
      <trkpt lat="43.22315" lon="5.97017">
        <ele>542</ele>
        <time>2021-04-25T14:09:12+02:00</time>
      </trkpt>
      <trkpt lat="43.22298" lon="5.97039">
        <ele>539</ele>
        <time>2021-04-25T14:09:39+02:00</time>
      </trkpt>
      <trkpt lat="43.22296" lon="5.9707">
        <ele>537</ele>
        <time>2021-04-25T14:10:10+02:00</time>
      </trkpt>
      <trkpt lat="43.22309" lon="5.97095">
        <ele>534</ele>
        <time>2021-04-25T14:10:36+02:00</time>
      </trkpt>
      <trkpt lat="43.22319" lon="5.97125">
        <ele>532</ele>
        <time>2021-04-25T14:11:09+02:00</time>
      </trkpt>
      <trkpt lat="43.22324" lon="5.97155">
        <ele>530</ele>
        <time>2021-04-25T14:11:32+02:00</time>
      </trkpt>
      <trkpt lat="43.22327" lon="5.97186">
        <ele>527</ele>
        <time>2021-04-25T14:11:54+02:00</time>
      </trkpt>
      <trkpt lat="43.22319" lon="5.97216">
        <ele>525</ele>
        <time>2021-04-25T14:12:17+02:00</time>
      </trkpt>
      <trkpt lat="43.22328" lon="5.97245">
        <ele>523</ele>
        <time>2021-04-25T14:12:40+02:00</time>
      </trkpt>
      <trkpt lat="43.22343" lon="5.97269">
        <ele>523</ele>
        <time>2021-04-25T14:13:03+02:00</time>
      </trkpt>
      <trkpt lat="43.2236" lon="5.9729">
        <ele>521</ele>
        <time>2021-04-25T14:13:25+02:00</time>
      </trkpt>
      <trkpt lat="43.22373" lon="5.97317">
        <ele>519</ele>
        <time>2021-04-25T14:14:14+02:00</time>
      </trkpt>
      <trkpt lat="43.22393" lon="5.97334">
        <ele>518</ele>
        <time>2021-04-25T14:14:30+02:00</time>
      </trkpt>
      <trkpt lat="43.22411" lon="5.97353">
        <ele>513</ele>
        <time>2021-04-25T14:15:06+02:00</time>
      </trkpt>
      <trkpt lat="43.22422" lon="5.97382">
        <ele>510</ele>
        <time>2021-04-25T14:16:06+02:00</time>
      </trkpt>
      <trkpt lat="43.22437" lon="5.97407">
        <ele>509</ele>
        <time>2021-04-25T14:16:33+02:00</time>
      </trkpt>
      <trkpt lat="43.22442" lon="5.97429">
        <ele>507</ele>
        <time>2021-04-25T14:16:52+02:00</time>
      </trkpt>
      <trkpt lat="43.22455" lon="5.97443">
        <ele>506</ele>
        <time>2021-04-25T14:22:28+02:00</time>
      </trkpt>
      <trkpt lat="43.22479" lon="5.9744">
        <ele>507</ele>
        <time>2021-04-25T14:23:30+02:00</time>
      </trkpt>
      <trkpt lat="43.22501" lon="5.97447">
        <ele>506</ele>
        <time>2021-04-25T14:23:58+02:00</time>
      </trkpt>
      <trkpt lat="43.22523" lon="5.97455">
        <ele>503</ele>
        <time>2021-04-25T14:24:32+02:00</time>
      </trkpt>
      <trkpt lat="43.22544" lon="5.97466">
        <ele>497</ele>
        <time>2021-04-25T14:25:09+02:00</time>
      </trkpt>
      <trkpt lat="43.22567" lon="5.97467">
        <ele>490</ele>
        <time>2021-04-25T14:25:28+02:00</time>
      </trkpt>
      <trkpt lat="43.22588" lon="5.9748">
        <ele>484</ele>
        <time>2021-04-25T14:26:34+02:00</time>
      </trkpt>
      <trkpt lat="43.22594" lon="5.9751">
        <ele>476</ele>
        <time>2021-04-25T14:27:45+02:00</time>
      </trkpt>
      <trkpt lat="43.22594" lon="5.97541">
        <ele>467</ele>
        <time>2021-04-25T14:28:22+02:00</time>
      </trkpt>
      <trkpt lat="43.22601" lon="5.9757">
        <ele>460</ele>
        <time>2021-04-25T14:28:56+02:00</time>
      </trkpt>
      <trkpt lat="43.22616" lon="5.97594">
        <ele>454</ele>
        <time>2021-04-25T14:29:38+02:00</time>
      </trkpt>
      <trkpt lat="43.22629" lon="5.9762">
        <ele>452</ele>
        <time>2021-04-25T14:30:09+02:00</time>
      </trkpt>
      <trkpt lat="43.22636" lon="5.97649">
        <ele>445</ele>
        <time>2021-04-25T14:31:18+02:00</time>
      </trkpt>
      <trkpt lat="43.22653" lon="5.9767">
        <ele>438</ele>
        <time>2021-04-25T14:32:55+02:00</time>
      </trkpt>
      <trkpt lat="43.22674" lon="5.97662">
        <ele>434</ele>
        <time>2021-04-25T14:34:19+02:00</time>
      </trkpt>
      <trkpt lat="43.22695" lon="5.97649">
        <ele>423</ele>
        <time>2021-04-25T14:35:29+02:00</time>
      </trkpt>
      <trkpt lat="43.22717" lon="5.97651">
        <ele>414</ele>
        <time>2021-04-25T14:36:12+02:00</time>
      </trkpt>
      <trkpt lat="43.2274" lon="5.97657">
        <ele>409</ele>
        <time>2021-04-25T14:36:56+02:00</time>
      </trkpt>
      <trkpt lat="43.22763" lon="5.97657">
        <ele>404</ele>
        <time>2021-04-25T14:37:30+02:00</time>
      </trkpt>
      <trkpt lat="43.22777" lon="5.97632">
        <ele>400</ele>
        <time>2021-04-25T14:37:58+02:00</time>
      </trkpt>
      <trkpt lat="43.22789" lon="5.97605">
        <ele>393</ele>
        <time>2021-04-25T14:38:49+02:00</time>
      </trkpt>
      <trkpt lat="43.22802" lon="5.97579">
        <ele>384</ele>
        <time>2021-04-25T14:40:03+02:00</time>
      </trkpt>
      <trkpt lat="43.22816" lon="5.97552">
        <ele>377</ele>
        <time>2021-04-25T14:41:42+02:00</time>
      </trkpt>
      <trkpt lat="43.22838" lon="5.97546">
        <ele>370</ele>
        <time>2021-04-25T14:41:56+02:00</time>
      </trkpt>
      <trkpt lat="43.22859" lon="5.9756">
        <ele>365</ele>
        <time>2021-04-25T14:42:10+02:00</time>
      </trkpt>
      <trkpt lat="43.22882" lon="5.97562">
        <ele>365</ele>
        <time>2021-04-25T14:42:36+02:00</time>
      </trkpt>
      <trkpt lat="43.22904" lon="5.97558">
        <ele>370</ele>
        <time>2021-04-25T14:43:17+02:00</time>
      </trkpt>
      <trkpt lat="43.22925" lon="5.9757">
        <ele>367</ele>
        <time>2021-04-25T14:45:36+02:00</time>
      </trkpt>
      <trkpt lat="43.22948" lon="5.97576">
        <ele>370</ele>
        <time>2021-04-25T14:45:54+02:00</time>
      </trkpt>
      <trkpt lat="43.22963" lon="5.976">
        <ele>365</ele>
        <time>2021-04-25T14:46:20+02:00</time>
      </trkpt>
      <trkpt lat="43.22981" lon="5.9762">
        <ele>365</ele>
        <time>2021-04-25T14:46:39+02:00</time>
      </trkpt>
      <trkpt lat="43.23002" lon="5.97635">
        <ele>367</ele>
        <time>2021-04-25T14:47:05+02:00</time>
      </trkpt>
      <trkpt lat="43.23023" lon="5.97647">
        <ele>367</ele>
        <time>2021-04-25T14:47:20+02:00</time>
      </trkpt>
      <trkpt lat="43.23046" lon="5.97649">
        <ele>366</ele>
        <time>2021-04-25T14:48:08+02:00</time>
      </trkpt>
      <trkpt lat="43.23068" lon="5.97653">
        <ele>363</ele>
        <time>2021-04-25T14:48:36+02:00</time>
      </trkpt>
      <trkpt lat="43.2309" lon="5.97644">
        <ele>368</ele>
        <time>2021-04-25T14:48:55+02:00</time>
      </trkpt>
      <trkpt lat="43.23112" lon="5.97649">
        <ele>370</ele>
        <time>2021-04-25T14:49:55+02:00</time>
      </trkpt>
      <trkpt lat="43.23131" lon="5.97669">
        <ele>372</ele>
        <time>2021-04-25T14:50:22+02:00</time>
      </trkpt>
      <trkpt lat="43.23153" lon="5.97672">
        <ele>377</ele>
        <time>2021-04-25T14:50:45+02:00</time>
      </trkpt>
      <trkpt lat="43.23175" lon="5.97683">
        <ele>377</ele>
        <time>2021-04-25T14:51:54+02:00</time>
      </trkpt>
      <trkpt lat="43.23191" lon="5.97707">
        <ele>376</ele>
        <time>2021-04-25T14:52:34+02:00</time>
      </trkpt>
      <trkpt lat="43.23205" lon="5.97732">
        <ele>378</ele>
        <time>2021-04-25T14:52:53+02:00</time>
      </trkpt>
      <trkpt lat="43.23217" lon="5.97759">
        <ele>382</ele>
        <time>2021-04-25T14:53:17+02:00</time>
      </trkpt>
      <trkpt lat="43.23216" lon="5.97791">
        <ele>379</ele>
        <time>2021-04-25T14:53:45+02:00</time>
      </trkpt>
      <trkpt lat="43.23224" lon="5.97822">
        <ele>382</ele>
        <time>2021-04-25T14:54:10+02:00</time>
      </trkpt>
      <trkpt lat="43.23233" lon="5.97851">
        <ele>384</ele>
        <time>2021-04-25T14:54:46+02:00</time>
      </trkpt>
      <trkpt lat="43.23244" lon="5.97879">
        <ele>386</ele>
        <time>2021-04-25T14:55:18+02:00</time>
      </trkpt>
      <trkpt lat="43.23265" lon="5.97893">
        <ele>388</ele>
        <time>2021-04-25T14:55:42+02:00</time>
      </trkpt>
      <trkpt lat="43.23286" lon="5.97908">
        <ele>385</ele>
        <time>2021-04-25T14:56:06+02:00</time>
      </trkpt>
      <trkpt lat="43.23307" lon="5.97918">
        <ele>385</ele>
        <time>2021-04-25T14:56:27+02:00</time>
      </trkpt>
      <trkpt lat="43.23327" lon="5.97933">
        <ele>383</ele>
        <time>2021-04-25T14:56:48+02:00</time>
      </trkpt>
      <trkpt lat="43.23348" lon="5.97945">
        <ele>379</ele>
        <time>2021-04-25T14:57:38+02:00</time>
      </trkpt>
      <trkpt lat="43.23366" lon="5.97965">
        <ele>370</ele>
        <time>2021-04-25T14:58:13+02:00</time>
      </trkpt>
      <trkpt lat="43.23388" lon="5.97973">
        <ele>365</ele>
        <time>2021-04-25T14:58:53+02:00</time>
      </trkpt>
      <trkpt lat="43.2341" lon="5.97966">
        <ele>372</ele>
        <time>2021-04-25T14:59:35+02:00</time>
      </trkpt>
      <trkpt lat="43.23426" lon="5.97988">
        <ele>369</ele>
        <time>2021-04-25T15:00:02+02:00</time>
      </trkpt>
      <trkpt lat="43.23427" lon="5.9802">
        <ele>360</ele>
        <time>2021-04-25T15:01:27+02:00</time>
      </trkpt>
      <trkpt lat="43.2342" lon="5.9805">
        <ele>350</ele>
        <time>2021-04-25T15:02:06+02:00</time>
      </trkpt>
      <trkpt lat="43.2342" lon="5.98081">
        <ele>341</ele>
        <time>2021-04-25T15:03:01+02:00</time>
      </trkpt>
      <trkpt lat="43.23418" lon="5.98112">
        <ele>333</ele>
        <time>2021-04-25T15:04:07+02:00</time>
      </trkpt>
      <trkpt lat="43.23415" lon="5.98143">
        <ele>324</ele>
        <time>2021-04-25T15:04:59+02:00</time>
      </trkpt>
      <trkpt lat="43.23409" lon="5.98173">
        <ele>315</ele>
        <time>2021-04-25T15:06:00+02:00</time>
      </trkpt>
      <trkpt lat="43.23408" lon="5.98204">
        <ele>309</ele>
        <time>2021-04-25T15:06:33+02:00</time>
      </trkpt>
      <trkpt lat="43.23431" lon="5.9821">
        <ele>304</ele>
        <time>2021-04-25T15:07:24+02:00</time>
      </trkpt>
      <trkpt lat="43.23453" lon="5.9822">
        <ele>294</ele>
        <time>2021-04-25T15:08:03+02:00</time>
      </trkpt>
      <trkpt lat="43.23467" lon="5.98245">
        <ele>282</ele>
        <time>2021-04-25T15:08:49+02:00</time>
      </trkpt>
      <trkpt lat="43.23466" lon="5.98275">
        <ele>274</ele>
        <time>2021-04-25T15:09:28+02:00</time>
      </trkpt>
      <trkpt lat="43.23489" lon="5.98278">
        <ele>270</ele>
        <time>2021-04-25T15:10:00+02:00</time>
      </trkpt>
      <trkpt lat="43.23512" lon="5.98278">
        <ele>268</ele>
        <time>2021-04-25T15:10:37+02:00</time>
      </trkpt>
      <trkpt lat="43.23535" lon="5.98278">
        <ele>266</ele>
        <time>2021-04-25T15:11:05+02:00</time>
      </trkpt>
      <trkpt lat="43.23552" lon="5.98298">
        <ele>261</ele>
        <time>2021-04-25T15:11:34+02:00</time>
      </trkpt>
      <trkpt lat="43.23568" lon="5.9832">
        <ele>254</ele>
        <time>2021-04-25T15:11:57+02:00</time>
      </trkpt>
      <trkpt lat="43.23587" lon="5.98304">
        <ele>255</ele>
        <time>2021-04-25T15:13:14+02:00</time>
      </trkpt>
      <trkpt lat="43.23609" lon="5.98293">
        <ele>254</ele>
        <time>2021-04-25T15:13:36+02:00</time>
      </trkpt>
      <trkpt lat="43.23616" lon="5.98323">
        <ele>253</ele>
        <time>2021-04-25T15:16:54+02:00</time>
      </trkpt>
      <trkpt lat="43.23613" lon="5.98354">
        <ele>254</ele>
        <time>2021-04-25T15:17:13+02:00</time>
      </trkpt>
      <trkpt lat="43.23604" lon="5.98384">
        <ele>254</ele>
        <time>2021-04-25T15:17:37+02:00</time>
      </trkpt>
      <trkpt lat="43.23592" lon="5.9841">
        <ele>253</ele>
        <time>2021-04-25T15:18:02+02:00</time>
      </trkpt>
      <trkpt lat="43.23582" lon="5.98438">
        <ele>253</ele>
        <time>2021-04-25T15:18:21+02:00</time>
      </trkpt>
      <trkpt lat="43.23589" lon="5.98468">
        <ele>253</ele>
        <time>2021-04-25T15:18:37+02:00</time>
      </trkpt>
      <trkpt lat="43.23606" lon="5.9849">
        <ele>252</ele>
        <time>2021-04-25T15:18:59+02:00</time>
      </trkpt>
      <trkpt lat="43.23629" lon="5.98493">
        <ele>253</ele>
        <time>2021-04-25T15:19:25+02:00</time>
      </trkpt>
      <trkpt lat="43.23637" lon="5.98522">
        <ele>253</ele>
        <time>2021-04-25T15:23:23+02:00</time>
      </trkpt>
      <trkpt lat="43.23628" lon="5.98551">
        <ele>253</ele>
        <time>2021-04-25T15:23:42+02:00</time>
      </trkpt>
      <trkpt lat="43.2362" lon="5.98582">
        <ele>256</ele>
        <time>2021-04-25T15:23:59+02:00</time>
      </trkpt>
      <trkpt lat="43.23622" lon="5.98614">
        <ele>259</ele>
        <time>2021-04-25T15:24:17+02:00</time>
      </trkpt>
      <trkpt lat="43.23623" lon="5.98646">
        <ele>260</ele>
        <time>2021-04-25T15:24:34+02:00</time>
      </trkpt>
      <trkpt lat="43.23626" lon="5.98677">
        <ele>262</ele>
        <time>2021-04-25T15:24:51+02:00</time>
      </trkpt>
      <trkpt lat="43.23628" lon="5.98708">
        <ele>262</ele>
        <time>2021-04-25T15:25:18+02:00</time>
      </trkpt>
      <trkpt lat="43.23635" lon="5.98739">
        <ele>265</ele>
        <time>2021-04-25T15:25:42+02:00</time>
      </trkpt>
      <trkpt lat="43.23637" lon="5.9877">
        <ele>266</ele>
        <time>2021-04-25T15:26:03+02:00</time>
      </trkpt>
      <trkpt lat="43.23639" lon="5.98801">
        <ele>266</ele>
        <time>2021-04-25T15:26:36+02:00</time>
      </trkpt>
      <trkpt lat="43.23637" lon="5.98832">
        <ele>266</ele>
        <time>2021-04-25T15:26:53+02:00</time>
      </trkpt>
      <trkpt lat="43.2364" lon="5.98863">
        <ele>267</ele>
        <time>2021-04-25T15:27:16+02:00</time>
      </trkpt>
      <trkpt lat="43.23644" lon="5.98893">
        <ele>267</ele>
        <time>2021-04-25T15:27:39+02:00</time>
      </trkpt>
      <trkpt lat="43.23653" lon="5.98921">
        <ele>267</ele>
        <time>2021-04-25T15:27:59+02:00</time>
      </trkpt>
      <trkpt lat="43.23659" lon="5.98952">
        <ele>266</ele>
        <time>2021-04-25T15:28:24+02:00</time>
      </trkpt>
      <trkpt lat="43.23662" lon="5.98983">
        <ele>264</ele>
        <time>2021-04-25T15:28:46+02:00</time>
      </trkpt>
      <trkpt lat="43.23663" lon="5.99013">
        <ele>262</ele>
        <time>2021-04-25T15:29:10+02:00</time>
      </trkpt>
      <trkpt lat="43.23662" lon="5.99045">
        <ele>261</ele>
        <time>2021-04-25T15:29:33+02:00</time>
      </trkpt>
      <trkpt lat="43.23662" lon="5.99076">
        <ele>261</ele>
        <time>2021-04-25T15:29:54+02:00</time>
      </trkpt>
      <trkpt lat="43.2367" lon="5.99106">
        <ele>258</ele>
        <time>2021-04-25T15:30:17+02:00</time>
      </trkpt>
      <trkpt lat="43.23682" lon="5.99133">
        <ele>253</ele>
        <time>2021-04-25T15:30:43+02:00</time>
      </trkpt>
      <trkpt lat="43.23703" lon="5.99148">
        <ele>246</ele>
        <time>2021-04-25T15:31:22+02:00</time>
      </trkpt>
      <trkpt lat="43.23707" lon="5.99179">
        <ele>245</ele>
        <time>2021-04-25T15:31:47+02:00</time>
      </trkpt>
      <trkpt lat="43.23719" lon="5.99206">
        <ele>241</ele>
        <time>2021-04-25T15:32:15+02:00</time>
      </trkpt>
      <trkpt lat="43.23733" lon="5.9923">
        <ele>238</ele>
        <time>2021-04-25T15:32:41+02:00</time>
      </trkpt>
      <trkpt lat="43.2375" lon="5.99251">
        <ele>233</ele>
        <time>2021-04-25T15:33:03+02:00</time>
      </trkpt>
      <trkpt lat="43.23766" lon="5.99275">
        <ele>230</ele>
        <time>2021-04-25T15:33:22+02:00</time>
      </trkpt>
      <trkpt lat="43.23777" lon="5.99302">
        <ele>227</ele>
        <time>2021-04-25T15:33:43+02:00</time>
      </trkpt>
      <trkpt lat="43.23786" lon="5.99331">
        <ele>226</ele>
        <time>2021-04-25T15:34:09+02:00</time>
      </trkpt>
      <trkpt lat="43.23793" lon="5.99362">
        <ele>224</ele>
        <time>2021-04-25T15:34:30+02:00</time>
      </trkpt>
      <trkpt lat="43.238" lon="5.99392">
        <ele>221</ele>
        <time>2021-04-25T15:35:08+02:00</time>
      </trkpt>
      <trkpt lat="43.23802" lon="5.99424">
        <ele>221</ele>
        <time>2021-04-25T15:35:29+02:00</time>
      </trkpt>
      <trkpt lat="43.23817" lon="5.99447">
        <ele>221</ele>
        <time>2021-04-25T15:35:51+02:00</time>
      </trkpt>
      <trkpt lat="43.23829" lon="5.99474">
        <ele>220</ele>
        <time>2021-04-25T15:36:32+02:00</time>
      </trkpt>
      <trkpt lat="43.23849" lon="5.99488">
        <ele>215</ele>
        <time>2021-04-25T15:36:57+02:00</time>
      </trkpt>
      <trkpt lat="43.2386" lon="5.99516">
        <ele>211</ele>
        <time>2021-04-25T15:37:19+02:00</time>
      </trkpt>
      <trkpt lat="43.2387" lon="5.99545">
        <ele>208</ele>
        <time>2021-04-25T15:37:45+02:00</time>
      </trkpt>
      <trkpt lat="43.23888" lon="5.99563">
        <ele>206</ele>
        <time>2021-04-25T15:38:23+02:00</time>
      </trkpt>
      <trkpt lat="43.23912" lon="5.99565">
        <ele>204</ele>
        <time>2021-04-25T15:38:57+02:00</time>
      </trkpt>
      <trkpt lat="43.23935" lon="5.99567">
        <ele>198</ele>
        <time>2021-04-25T15:39:18+02:00</time>
      </trkpt>
      <trkpt lat="43.23956" lon="5.99579">
        <ele>195</ele>
        <time>2021-04-25T15:39:43+02:00</time>
      </trkpt>
      <trkpt lat="43.23976" lon="5.99594">
        <ele>192</ele>
        <time>2021-04-25T15:40:06+02:00</time>
      </trkpt>
      <trkpt lat="43.23999" lon="5.99598">
        <ele>189</ele>
        <time>2021-04-25T15:40:28+02:00</time>
      </trkpt>
      <trkpt lat="43.24017" lon="5.99617">
        <ele>187</ele>
        <time>2021-04-25T15:40:51+02:00</time>
      </trkpt>
      <trkpt lat="43.24018" lon="5.99648">
        <ele>183</ele>
        <time>2021-04-25T15:41:18+02:00</time>
      </trkpt>
      <trkpt lat="43.24031" lon="5.99673">
        <ele>176</ele>
        <time>2021-04-25T15:41:34+02:00</time>
      </trkpt>
      <trkpt lat="43.24049" lon="5.99692">
        <ele>172</ele>
        <time>2021-04-25T15:41:54+02:00</time>
      </trkpt>
      <trkpt lat="43.24071" lon="5.99702">
        <ele>173</ele>
        <time>2021-04-25T15:42:17+02:00</time>
      </trkpt>
      <trkpt lat="43.24093" lon="5.9971">
        <ele>173</ele>
        <time>2021-04-25T15:42:36+02:00</time>
      </trkpt>
      <trkpt lat="43.24115" lon="5.99717">
        <ele>172</ele>
        <time>2021-04-25T15:42:57+02:00</time>
      </trkpt>
      <trkpt lat="43.24137" lon="5.99725">
        <ele>171</ele>
        <time>2021-04-25T15:43:22+02:00</time>
      </trkpt>
      <trkpt lat="43.24159" lon="5.99732">
        <ele>172</ele>
        <time>2021-04-25T15:43:41+02:00</time>
      </trkpt>
      <trkpt lat="43.24179" lon="5.99749">
        <ele>170</ele>
        <time>2021-04-25T15:44:05+02:00</time>
      </trkpt>
      <trkpt lat="43.24195" lon="5.99772">
        <ele>167</ele>
        <time>2021-04-25T15:44:48+02:00</time>
      </trkpt>
      <trkpt lat="43.24216" lon="5.99785">
        <ele>167</ele>
        <time>2021-04-25T15:45:16+02:00</time>
      </trkpt>
      <trkpt lat="43.24231" lon="5.9981">
        <ele>165</ele>
        <time>2021-04-25T15:45:46+02:00</time>
      </trkpt>
      <trkpt lat="43.24248" lon="5.99832">
        <ele>165</ele>
        <time>2021-04-25T15:46:11+02:00</time>
      </trkpt>
      <trkpt lat="43.24269" lon="5.99844">
        <ele>164</ele>
        <time>2021-04-25T15:46:37+02:00</time>
      </trkpt>
      <trkpt lat="43.24288" lon="5.99859">
        <ele>159</ele>
        <time>2021-04-25T15:47:04+02:00</time>
      </trkpt>
      <trkpt lat="43.24311" lon="5.99865">
        <ele>153</ele>
        <time>2021-04-25T15:47:47+02:00</time>
      </trkpt>
      <trkpt lat="43.24325" lon="5.99841">
        <ele>153</ele>
        <time>2021-04-25T15:48:07+02:00</time>
      </trkpt>
      <trkpt lat="43.24342" lon="5.9982">
        <ele>152</ele>
        <time>2021-04-25T15:48:29+02:00</time>
      </trkpt>
      <trkpt lat="43.24365" lon="5.99824">
        <ele>150</ele>
        <time>2021-04-25T15:48:54+02:00</time>
      </trkpt>
      <trkpt lat="43.24384" lon="5.99807">
        <ele>150</ele>
        <time>2021-04-25T15:49:50+02:00</time>
      </trkpt>
      <trkpt lat="43.24402" lon="5.99787">
        <ele>152</ele>
        <time>2021-04-25T15:51:13+02:00</time>
      </trkpt>
      <trkpt lat="43.24423" lon="5.99802">
        <ele>155</ele>
        <time>2021-04-25T15:51:42+02:00</time>
      </trkpt>
      <trkpt lat="43.24441" lon="5.99821">
        <ele>158</ele>
        <time>2021-04-25T15:52:05+02:00</time>
      </trkpt>
      <trkpt lat="43.24458" lon="5.99842">
        <ele>160</ele>
        <time>2021-04-25T15:52:24+02:00</time>
      </trkpt>
      <trkpt lat="43.24462" lon="5.99873">
        <ele>159</ele>
        <time>2021-04-25T15:52:45+02:00</time>
      </trkpt>
      <trkpt lat="43.24469" lon="5.99902">
        <ele>157</ele>
        <time>2021-04-25T15:53:16+02:00</time>
      </trkpt>
      <trkpt lat="43.24488" lon="5.9992">
        <ele>158</ele>
        <time>2021-04-25T15:53:35+02:00</time>
      </trkpt>
      <trkpt lat="43.24494" lon="5.9995">
        <ele>154</ele>
        <time>2021-04-25T15:54:25+02:00</time>
      </trkpt>
      <trkpt lat="43.24481" lon="5.99977">
        <ele>150</ele>
        <time>2021-04-25T15:54:43+02:00</time>
      </trkpt>
      <trkpt lat="43.24502" lon="5.99993">
        <ele>150</ele>
        <time>2021-04-25T15:59:49+02:00</time>
      </trkpt>
      <trkpt lat="43.24498" lon="6.00024">
        <ele>150</ele>
        <time>2021-04-25T15:59:59+02:00</time>
      </trkpt>
      <trkpt lat="43.24475" lon="6.00025">
        <ele>150</ele>
        <time>2021-04-25T16:02:16+02:00</time>
      </trkpt>
      <trkpt lat="43.24452" lon="6.00028">
        <ele>150</ele>
        <time>2021-04-25T16:02:43+02:00</time>
      </trkpt>
      <trkpt lat="43.24429" lon="6.00032">
        <ele>150</ele>
        <time>2021-04-25T16:03:05+02:00</time>
      </trkpt>
      <trkpt lat="43.24406" lon="6.00039">
        <ele>152</ele>
        <time>2021-04-25T16:03:26+02:00</time>
      </trkpt>
      <trkpt lat="43.24384" lon="6.0005">
        <ele>153</ele>
        <time>2021-04-25T16:03:46+02:00</time>
      </trkpt>
    </trkseg>
  </trk>
</gpx>